createdAt,value
2022-11-28T00:01:19.090Z,94197.53
2022-11-28T00:03:45.577Z,94187.75
2022-11-28T00:06:12.352Z,94180.44
2022-11-28T00:08:38.875Z,94187.28
2022-11-28T00:11:08.532Z,94177.94
2022-11-28T00:13:36.150Z,94195.75
2022-11-28T00:16:04.966Z,94194.72
2022-11-28T00:18:31.613Z,94194.25
2022-11-28T00:21:10.074Z,94177.94
2022-11-28T00:23:36.524Z,94181.59
2022-11-28T00:26:11.655Z,94177.31
2022-11-28T00:28:38.288Z,94176.22
2022-11-28T00:31:05.070Z,94183.69
2022-11-28T00:33:33.088Z,94172.94
2022-11-28T00:36:05.882Z,94173.50
2022-11-28T00:38:32.279Z,94174.03
2022-11-28T00:40:59.731Z,94165.56
2022-11-28T00:43:26.224Z,94154.97
2022-11-28T00:45:52.674Z,94151.19
2022-11-28T00:48:19.493Z,94141.13
2022-11-28T00:50:46.342Z,94149.53
2022-11-28T00:53:12.849Z,94140.53
2022-11-28T00:55:39.982Z,94135.59
2022-11-28T00:58:07.028Z,94121.94
2022-11-28T01:00:34.139Z,94122.72
2022-11-28T01:03:00.572Z,94109.34
2022-11-28T01:05:27.000Z,94115.72
2022-11-28T01:07:53.655Z,94101.56
2022-11-28T01:10:21.263Z,94095.13
2022-11-28T01:12:47.872Z,94103.75
2022-11-28T01:15:14.492Z,94100.16
2022-11-28T01:17:41.921Z,94084.75
2022-11-28T01:20:09.281Z,94092.41
2022-11-28T01:22:35.726Z,94110.34
2022-11-28T01:25:02.161Z,94131.28
2022-11-28T01:27:28.602Z,94167.34
2022-11-28T01:29:55.214Z,94170.41
2022-11-28T01:32:21.641Z,94145.28
2022-11-28T01:34:48.069Z,94161.22
2022-11-28T01:37:14.559Z,94164.31
2022-11-28T01:39:40.990Z,94159.19
2022-11-28T01:42:07.401Z,94164.41
2022-11-28T01:44:33.851Z,94112.59
2022-11-28T01:47:00.289Z,94186.50
2022-11-28T01:49:34.612Z,94110.53
2022-11-28T01:52:20.083Z,94133.63
2022-11-28T01:54:52.249Z,94122.09
2022-11-28T01:57:22.320Z,94112.38
2022-11-28T01:59:58.242Z,94111.13
2022-11-28T02:02:34.722Z,94109.34
2022-11-28T02:05:01.294Z,94103.97
2022-11-28T02:07:27.811Z,94106.00
2022-11-28T02:09:54.837Z,94082.88
2022-11-28T02:12:46.277Z,94086.47
2022-11-28T02:15:25.408Z,94079.00
2022-11-28T02:18:25.780Z,94066.72
2022-11-28T02:21:04.473Z,94067.97
2022-11-28T02:23:56.527Z,94076.91
2022-11-28T02:26:58.472Z,94076.13
2022-11-28T02:29:38.703Z,94072.31
2022-11-28T02:32:25.030Z,94062.81
2022-11-28T02:35:22.224Z,94068.75
2022-11-28T02:38:11.561Z,94082.09
2022-11-28T02:40:53.266Z,94070.59
2022-11-28T02:43:33.255Z,94068.56
2022-11-28T02:46:17.175Z,94085.09
2022-11-28T02:49:04.408Z,94072.28
2022-11-28T02:51:52.770Z,94073.59
2022-11-28T02:54:21.057Z,94075.69
2022-11-28T02:56:52.757Z,94074.44
2022-11-28T02:59:31.316Z,94066.78
2022-11-28T03:01:58.982Z,94061.91
2022-11-28T03:05:02.789Z,94057.28
2022-11-28T03:08:14.218Z,94045.72
2022-11-28T03:10:59.228Z,94046.44
2022-11-28T03:13:41.765Z,94037.41
2022-11-28T03:16:22.622Z,94048.69
2022-11-28T03:19:16.413Z,94041.53
2022-11-28T03:21:50.933Z,94035.06
2022-11-28T03:24:27.882Z,94050.25
2022-11-28T03:27:19.208Z,94045.13
2022-11-28T03:30:00.427Z,94030.72
2022-11-28T03:32:33.771Z,94035.53
2022-11-28T03:35:08.443Z,94029.66
2022-11-28T03:37:40.688Z,94031.72
2022-11-28T03:40:12.432Z,94034.28
2022-11-28T03:42:43.560Z,94022.50
2022-11-28T03:45:25.553Z,94017.09
2022-11-28T03:48:06.627Z,93995.78
2022-11-28T03:50:41.807Z,94001.94
2022-11-28T03:53:37.594Z,94002.72
2022-11-28T03:56:22.862Z,93998.59
2022-11-28T03:58:59.251Z,93989.13
2022-11-28T04:01:35.236Z,93989.13
2022-11-28T04:04:31.658Z,94000.69
2022-11-28T04:07:16.797Z,93997.59
2022-11-28T04:10:00.487Z,94011.28
2022-11-28T04:12:52.879Z,94019.50
2022-11-28T04:15:40.865Z,94016.16
2022-11-28T04:18:13.439Z,93994.31
2022-11-28T04:20:46.198Z,94013.06
2022-11-28T04:23:16.993Z,94000.22
2022-11-28T04:25:50.904Z,94004.09
2022-11-28T04:28:22.344Z,94021.06
2022-11-28T04:30:50.212Z,94002.31
2022-11-28T04:33:20.877Z,93998.91
2022-11-28T04:35:53.224Z,93990.72
2022-11-28T04:38:22.691Z,93978.13
2022-11-28T04:41:18.396Z,93962.97
2022-11-28T04:43:52.080Z,93974.22
2022-11-28T04:46:25.173Z,93958.84
2022-11-28T04:48:51.736Z,93935.19
2022-11-28T04:51:27.384Z,93957.00
2022-11-28T04:54:19.915Z,93971.63
2022-11-28T04:57:01.462Z,93961.34
2022-11-28T04:59:30.248Z,93960.56
2022-11-28T05:01:58.604Z,93985.47
2022-11-28T05:04:25.303Z,94004.75
2022-11-28T05:07:02.297Z,93985.94
2022-11-28T05:09:28.735Z,93998.84
2022-11-28T05:11:55.200Z,93988.28
2022-11-28T05:14:22.188Z,93967.13
2022-11-28T05:16:48.831Z,93972.34
2022-11-28T05:19:15.869Z,93964.91
2022-11-28T05:21:42.454Z,94006.31
2022-11-28T05:24:09.391Z,94047.38
2022-11-28T05:26:35.894Z,94029.66
2022-11-28T05:29:02.545Z,94010.34
2022-11-28T05:31:29.294Z,94003.25
2022-11-28T05:33:56.013Z,93984.97
2022-11-28T05:36:22.975Z,93979.41
2022-11-28T05:38:50.325Z,93993.56
2022-11-28T05:41:26.253Z,93971.53
2022-11-28T05:43:53.260Z,93967.94
2022-11-28T05:46:20.160Z,93976.44
2022-11-28T05:48:46.693Z,93971.06
2022-11-28T05:51:13.201Z,93977.81
2022-11-28T05:53:39.610Z,93976.28
2022-11-28T05:56:11.146Z,93967.09
2022-11-28T05:58:37.693Z,93981.78
2022-11-28T06:01:13.953Z,93980.25
2022-11-28T06:03:41.493Z,93974.91
2022-11-28T06:06:20.494Z,93972.16
2022-11-28T06:08:48.779Z,93975.19
2022-11-28T06:11:16.074Z,93978.28
2022-11-28T06:13:43.532Z,93975.25
2022-11-28T06:16:11.904Z,93975.72
2022-11-28T06:18:39.852Z,93975.53
2022-11-28T06:21:09.538Z,93975.28
2022-11-28T06:23:36.859Z,93969.66
2022-11-28T06:26:08.467Z,93965.53
2022-11-28T06:28:35.521Z,93967.38
2022-11-28T06:31:02.375Z,93969.69
2022-11-28T06:33:29.592Z,93969.97
2022-11-28T06:36:00.963Z,93965.50
2022-11-28T06:38:28.028Z,93960.88
2022-11-28T06:40:59.900Z,93967.00
2022-11-28T06:43:26.931Z,93959.53
2022-11-28T06:45:53.652Z,93965.94
2022-11-28T06:48:20.594Z,93966.13
2022-11-28T06:50:47.646Z,93969.47
2022-11-28T06:53:14.576Z,93968.44
2022-11-28T06:55:41.362Z,93964.84
2022-11-28T06:58:07.874Z,93974.91
2022-11-28T07:00:35.102Z,93970.59
2022-11-28T07:03:01.516Z,93972.16
2022-11-28T07:05:28.619Z,93970.59
2022-11-28T07:07:55.054Z,93975.72
2022-11-28T07:10:22.183Z,93966.44
2022-11-28T07:12:54.079Z,93965.44
2022-11-28T07:15:20.617Z,93977.28
2022-11-28T07:17:47.049Z,93965.75
2022-11-28T07:20:13.920Z,93961.91
2022-11-28T07:22:40.358Z,93969.38
2022-11-28T07:25:07.415Z,93963.22
2022-11-28T07:27:34.068Z,93967.06
2022-11-28T07:30:00.486Z,93980.38
2022-11-28T07:32:26.949Z,93981.38
2022-11-28T07:34:53.838Z,93983.47
2022-11-28T07:37:20.368Z,93989.91
2022-11-28T07:39:47.484Z,93985.31
2022-11-28T07:42:13.936Z,93982.50
2022-11-28T07:44:40.774Z,93976.34
2022-11-28T07:47:07.223Z,93971.25
2022-11-28T07:49:33.632Z,93972.03
2022-11-28T07:52:01.086Z,93969.22
2022-11-28T07:54:27.496Z,93968.44
2022-11-28T07:59:40.735Z,93965.19
2022-11-28T08:02:09.045Z,93970.38
2022-11-28T08:04:36.679Z,93968.84
2022-11-28T08:07:03.216Z,93960.91
2022-11-28T08:09:31.576Z,93958.63
2022-11-28T08:11:58.681Z,93960.66
2022-11-28T08:14:25.310Z,93960.97
2022-11-28T08:16:52.388Z,93953.25
2022-11-28T08:19:22.951Z,93965.88
2022-11-28T08:21:51.096Z,93974.59
2022-11-28T08:24:17.572Z,93971.25
2022-11-28T08:26:44.047Z,93972.03
2022-11-28T08:29:10.979Z,93976.41
2022-11-28T08:31:38.708Z,93955.25
2022-11-28T08:34:08.499Z,93979.56
2022-11-28T08:36:35.031Z,93978.28
2022-11-28T08:39:22.765Z,93981.09
2022-11-28T08:41:49.782Z,93975.72
2022-11-28T08:44:16.296Z,93964.66
2022-11-28T08:46:42.750Z,93970.09
2022-11-28T08:49:09.181Z,93970.09
2022-11-28T08:51:36.508Z,93974.47
2022-11-28T08:54:02.999Z,93981.94
2022-11-28T08:56:29.438Z,93978.34
2022-11-28T08:58:55.996Z,93979.13
2022-11-28T09:01:26.766Z,93972.72
2022-11-28T09:03:54.726Z,93978.88
2022-11-28T09:06:22.291Z,93990.75
2022-11-28T09:08:50.120Z,93983.53
2022-11-28T09:11:18.395Z,93979.66
2022-11-28T09:13:45.134Z,93988.47
2022-11-28T09:16:12.616Z,93988.72
2022-11-28T09:18:39.048Z,93989.28
2022-11-28T09:21:11.707Z,93995.44
2022-11-28T09:23:41.040Z,93994.19
2022-11-28T09:26:12.648Z,93989.78
2022-11-28T09:28:39.039Z,93982.06
2022-11-28T09:31:07.516Z,93984.38
2022-11-28T09:33:35.069Z,93989.81
2022-11-28T09:36:10.452Z,93987.75
2022-11-28T09:38:37.342Z,93984.47
2022-11-28T09:41:16.603Z,93983.19
2022-11-28T09:43:44.943Z,93989.13
2022-11-28T09:46:17.903Z,94000.16
2022-11-28T09:48:52.029Z,93987.25
2022-11-28T09:51:31.242Z,93994.75
2022-11-28T09:54:34.745Z,93997.09
2022-11-28T09:57:03.638Z,93994.25
2022-11-28T09:59:30.507Z,93993.22
2022-11-28T10:02:21.906Z,93997.84
2022-11-28T10:04:59.386Z,93996.56
2022-11-28T10:07:33.077Z,93993.25
2022-11-28T10:10:33.579Z,93982.44
2022-11-28T10:13:18.805Z,93986.31
2022-11-28T10:16:13.143Z,93986.09
2022-11-28T10:18:54.679Z,93990.47
2022-11-28T10:21:31.221Z,93993.84
2022-11-28T10:24:05.891Z,93980.75
2022-11-28T10:26:37.082Z,93977.91
2022-11-28T10:29:27.581Z,93976.41
2022-11-28T10:31:57.391Z,93979.22
2022-11-28T10:34:31.163Z,93973.06
2022-11-28T10:37:03.425Z,93977.22
2022-11-28T10:39:29.867Z,93971.31
2022-11-28T10:42:13.695Z,93977.81
2022-11-28T10:44:56.337Z,93979.34
2022-11-28T10:47:41.183Z,93974.69
2022-11-28T10:50:33.664Z,93968.53
2022-11-28T10:53:09.003Z,93963.38
2022-11-28T10:55:58.954Z,93947.41
2022-11-28T10:58:51.300Z,93948.47
2022-11-28T11:01:17.876Z,93944.34
2022-11-28T11:03:44.516Z,93949.50
2022-11-28T11:06:11.089Z,93945.91
2022-11-28T11:08:39.611Z,93951.84
2022-11-28T11:11:18.740Z,93951.06
2022-11-28T11:14:09.411Z,93952.41
2022-11-28T11:16:55.785Z,93956.53
2022-11-28T11:19:36.886Z,93954.72
2022-11-28T11:22:12.497Z,93954.19
2022-11-28T11:24:38.933Z,93953.19
2022-11-28T11:27:25.639Z,93957.31
2022-11-28T11:29:53.353Z,93951.09
2022-11-28T11:32:25.110Z,93954.75
2022-11-28T11:34:51.806Z,93950.88
2022-11-28T11:37:20.617Z,93946.50
2022-11-28T11:39:51.842Z,93952.41
2022-11-28T11:42:24.837Z,93950.59
2022-11-28T11:44:51.777Z,93952.94
2022-11-28T11:47:19.156Z,93947.50
2022-11-28T11:49:49.651Z,93940.28
2022-11-28T11:52:24.210Z,93943.13
2022-11-28T11:54:59.403Z,93944.91
2022-11-28T11:57:36.937Z,93936.13
2022-11-28T12:00:10.846Z,93942.06
2022-11-28T12:02:45.709Z,93941.78
2022-11-28T12:05:21.208Z,93947.97
2022-11-28T12:07:58.754Z,93941.78
2022-11-28T12:10:29.711Z,93938.91
2022-11-28T12:12:56.772Z,93939.19
2022-11-28T12:15:59.193Z,93928.84
2022-11-28T12:18:51.551Z,93933.22
2022-11-28T12:22:12.992Z,93928.53
2022-11-28T12:24:59.568Z,93924.63
2022-11-28T12:27:41.240Z,93924.88
2022-11-28T12:30:24.776Z,93920.47
2022-11-28T12:33:05.380Z,93913.47
2022-11-28T12:35:39.946Z,93913.22
2022-11-28T12:38:20.808Z,93911.13
2022-11-28T12:41:27.517Z,93908.50
2022-11-28T12:44:09.032Z,93902.31
2022-11-28T12:46:49.890Z,93884.50
2022-11-28T12:49:41.199Z,93904.38
2022-11-28T12:52:45.667Z,93905.88
2022-11-28T12:55:36.837Z,93904.59
2022-11-28T12:58:18.693Z,93906.38
2022-11-28T13:01:17.066Z,93900.16
2022-11-28T13:04:06.544Z,93905.06
2022-11-28T13:06:56.717Z,93899.63
2022-11-28T13:09:31.651Z,93905.31
2022-11-28T13:12:22.532Z,93902.19
2022-11-28T13:14:58.884Z,93898.56
2022-11-28T13:17:40.957Z,93907.88
2022-11-28T13:20:52.866Z,93908.66
2022-11-28T13:23:26.758Z,93906.84
2022-11-28T13:26:07.802Z,93906.88
2022-11-28T13:28:54.698Z,93907.41
2022-11-28T13:32:01.704Z,93900.97
2022-11-28T13:34:29.927Z,93904.38
2022-11-28T13:40:07.649Z,93904.66
2022-11-28T13:43:12.988Z,93906.22
2022-11-28T13:45:44.400Z,93901.84
2022-11-28T13:48:49.966Z,93902.88
2022-11-28T13:51:19.316Z,93903.41
2022-11-28T13:53:49.480Z,93900.84
2022-11-28T13:56:24.944Z,93904.69
2022-11-28T13:59:00.709Z,93902.88
2022-11-28T14:01:44.264Z,93895.41
2022-11-28T14:04:17.318Z,93899.78
2022-11-28T14:06:52.257Z,93904.94
2022-11-28T14:09:36.908Z,93892.53
2022-11-28T14:12:29.787Z,93893.59
2022-11-28T14:15:08.420Z,93902.13
2022-11-28T14:17:50.905Z,93901.38
2022-11-28T14:20:36.398Z,93896.97
2022-11-28T14:23:41.645Z,93901.66
2022-11-28T14:26:32.008Z,93894.72
2022-11-28T14:28:59.143Z,93903.00
2022-11-28T14:31:31.750Z,93900.44
2022-11-28T14:34:03.545Z,93900.97
2022-11-28T14:36:36.127Z,93898.38
2022-11-28T14:39:16.272Z,93903.84
2022-11-28T14:42:02.620Z,93903.09
2022-11-28T14:44:52.859Z,93905.41
2022-11-28T14:47:31.986Z,93906.94
2022-11-28T14:50:04.467Z,93904.13
2022-11-28T14:52:39.828Z,93911.91
2022-11-28T14:55:08.058Z,93909.84
2022-11-28T14:57:37.686Z,93909.06
2022-11-28T15:00:16.379Z,93909.59
2022-11-28T15:03:12.512Z,93907.75
2022-11-28T15:05:47.704Z,93908.28
2022-11-28T15:08:58.932Z,93913.22
2022-11-28T15:11:58.713Z,93913.72
2022-11-28T15:14:28.705Z,93912.69
2022-11-28T15:17:00.377Z,93909.59
2022-11-28T15:19:31.919Z,93911.66
2022-11-28T15:22:01.075Z,93902.63
2022-11-28T15:24:27.522Z,93907.03
2022-11-28T15:26:57.764Z,93902.38
2022-11-28T15:29:27.238Z,93885.63
2022-11-28T15:31:57.088Z,93897.22
2022-11-28T15:34:27.432Z,93901.59
2022-11-28T15:36:56.207Z,93899.28
2022-11-28T15:39:34.959Z,93890.78
2022-11-28T15:42:04.620Z,93901.63
2022-11-28T15:44:32.196Z,93896.19
2022-11-28T15:46:58.782Z,93900.31
2022-11-28T15:49:31.747Z,93909.84
2022-11-28T15:52:01.250Z,93903.16
2022-11-28T15:54:41.727Z,93910.09
2022-11-28T15:57:20.321Z,93905.72
2022-11-28T15:59:47.245Z,93903.66
2022-11-28T16:02:30.619Z,93898.78
2022-11-28T16:05:20.945Z,93906.22
2022-11-28T16:07:50.178Z,93906.78
2022-11-28T16:10:21.888Z,93907.28
2022-11-28T16:12:48.964Z,93912.44
2022-11-28T16:15:20.601Z,93909.34
2022-11-28T16:17:47.214Z,93904.19
2022-11-28T16:20:29.764Z,93908.84
2022-11-28T16:22:59.516Z,93904.19
2022-11-28T16:25:27.528Z,93915.53
2022-11-28T16:27:57.210Z,93907.78
2022-11-28T16:30:24.053Z,93903.13
2022-11-28T16:32:52.292Z,93902.63
2022-11-28T16:35:38.776Z,93904.19
2022-11-28T16:38:18.841Z,93910.63
2022-11-28T16:40:45.331Z,93899.03
2022-11-28T16:43:37.528Z,93897.47
2022-11-28T16:46:06.753Z,93902.63
2022-11-28T16:48:38.644Z,93893.84
2022-11-28T16:51:11.575Z,93904.44
2022-11-28T16:53:48.239Z,93900.31
2022-11-28T16:56:29.699Z,93897.22
2022-11-28T16:59:02.546Z,93896.19
2022-11-28T17:01:30.282Z,93893.63
2022-11-28T17:03:57.707Z,93891.78
2022-11-28T17:06:39.394Z,93889.75
2022-11-28T17:09:09.259Z,93890.25
2022-11-28T17:11:37.692Z,93892.84
2022-11-28T17:14:10.160Z,93888.97
2022-11-28T17:16:40.501Z,93890.25
2022-11-28T17:19:07.094Z,93890.75
2022-11-28T17:21:42.037Z,93887.16
2022-11-28T17:24:17.139Z,93886.66
2022-11-28T17:26:43.779Z,93896.69
2022-11-28T17:29:12.518Z,93895.94
2022-11-28T17:31:42.144Z,93904.19
2022-11-28T17:34:24.025Z,93906.50
2022-11-28T17:36:51.226Z,93907.53
2022-11-28T17:39:19.063Z,93910.88
2022-11-28T17:41:46.923Z,93909.34
2022-11-28T17:44:24.891Z,93916.03
2022-11-28T17:46:52.820Z,93910.38
2022-11-28T17:49:20.123Z,93918.09
2022-11-28T17:51:48.600Z,93919.66
2022-11-28T17:54:17.746Z,93909.84
2022-11-28T17:56:54.296Z,93910.38
2022-11-28T17:59:23.674Z,93905.72
2022-11-28T18:01:50.510Z,93910.63
2022-11-28T18:04:22.996Z,93908.84
2022-11-28T18:06:49.781Z,93912.44
2022-11-28T18:09:16.340Z,93909.34
2022-11-28T18:11:43.543Z,93920.16
2022-11-28T18:14:10.171Z,93917.34
2022-11-28T18:16:39.554Z,93901.59
2022-11-28T18:19:06.301Z,93902.66
2022-11-28T18:21:33.024Z,93901.59
2022-11-28T18:23:59.580Z,93911.41
2022-11-28T18:26:26.492Z,93905.22
2022-11-28T18:28:53.982Z,93901.59
2022-11-28T18:31:23.445Z,93903.41
2022-11-28T18:33:50.146Z,93903.16
2022-11-28T18:36:22.604Z,93901.34
2022-11-28T18:38:49.146Z,93899.28
2022-11-28T18:41:17.648Z,93908.31
2022-11-28T18:43:45.157Z,93894.91
2022-11-28T18:46:19.050Z,93901.06
2022-11-28T18:48:47.185Z,93896.69
2022-11-28T18:51:18.135Z,93903.66
2022-11-28T18:53:45.451Z,93897.97
2022-11-28T18:56:13.179Z,93903.13
2022-11-28T18:58:42.362Z,93897.97
2022-11-28T19:01:15.039Z,93896.97
2022-11-28T19:03:42.567Z,93895.41
2022-11-28T19:06:12.052Z,93899.53
2022-11-28T19:08:39.422Z,93906.22
2022-11-28T19:11:09.609Z,93912.97
2022-11-28T19:13:37.054Z,93911.41
2022-11-28T19:16:07.832Z,93909.09
2022-11-28T19:18:36.088Z,93904.69
2022-11-28T19:21:06.823Z,93898.25
2022-11-28T19:23:33.985Z,93904.72
2022-11-28T19:26:04.908Z,93900.28
2022-11-28T19:28:31.435Z,93888.69
2022-11-28T19:31:08.116Z,93886.38
2022-11-28T19:33:35.037Z,93894.91
2022-11-28T19:36:06.916Z,93886.38
2022-11-28T19:38:34.811Z,93904.44
2022-11-28T19:41:12.372Z,93904.97
2022-11-28T19:43:39.002Z,93909.34
2022-11-28T19:46:06.212Z,93913.44
2022-11-28T19:48:35.201Z,93910.88
2022-11-28T19:51:03.811Z,93909.34
2022-11-28T19:53:32.216Z,93907.78
2022-11-28T19:56:03.502Z,93920.16
2022-11-28T19:58:31.535Z,93912.16
2022-11-28T20:01:10.439Z,93901.84
2022-11-28T20:03:38.616Z,93908.56
2022-11-28T20:06:20.352Z,93903.94
2022-11-28T20:08:48.886Z,93906.75
2022-11-28T20:11:23.623Z,93902.13
2022-11-28T20:13:55.293Z,93907.78
2022-11-28T20:16:21.876Z,93911.41
2022-11-28T20:18:48.400Z,93911.16
2022-11-28T20:21:17.792Z,93910.38
2022-11-28T20:23:55.821Z,93906.00
2022-11-28T20:26:26.186Z,93907.28
2022-11-28T20:28:55.580Z,93903.91
2022-11-28T20:31:36.412Z,93912.44
2022-11-28T20:34:05.994Z,93914.50
2022-11-28T20:36:34.224Z,93924.28
2022-11-28T20:39:01.106Z,93915.53
2022-11-28T20:41:28.724Z,93927.41
2022-11-28T20:43:56.098Z,93930.72
2022-11-28T20:46:27.056Z,93934.34
2022-11-28T20:48:53.975Z,93922.75
2022-11-28T20:51:24.759Z,93933.56
2022-11-28T20:53:52.189Z,93917.09
2022-11-28T20:56:21.544Z,93914.22
2022-11-28T20:58:48.751Z,93933.84
2022-11-28T21:01:17.936Z,93901.88
2022-11-28T21:03:44.475Z,93922.47
2022-11-28T21:06:11.133Z,93923.03
2022-11-28T21:08:37.577Z,93923.53
2022-11-28T21:11:25.600Z,93924.53
2022-11-28T21:13:57.722Z,93920.16
2022-11-28T21:16:29.144Z,93926.63
2022-11-28T21:18:56.832Z,93921.22
2022-11-28T21:21:26.631Z,93931.25
2022-11-28T21:23:57.873Z,93926.88
2022-11-28T21:26:30.251Z,93920.69
2022-11-28T21:29:00.371Z,93924.28
2022-11-28T21:31:30.068Z,93924.28
2022-11-28T21:33:58.162Z,93933.06
2022-11-28T21:36:25.433Z,93920.69
2022-11-28T21:38:54.134Z,93923.00
2022-11-28T21:41:21.854Z,93925.34
2022-11-28T21:43:49.409Z,93932.03
2022-11-28T21:46:15.955Z,93922.25
2022-11-28T21:48:43.085Z,93927.91
2022-11-28T21:51:18.892Z,93922.75
2022-11-28T21:53:45.616Z,93921.97
2022-11-28T21:56:12.562Z,93923.53
2022-11-28T21:58:39.107Z,93925.31
2022-11-28T22:01:11.607Z,93916.03
2022-11-28T22:03:38.928Z,93922.47
2022-11-28T22:06:08.732Z,93922.22
2022-11-28T22:08:35.753Z,93919.38
2022-11-28T22:11:08.490Z,93920.94
2022-11-28T22:13:35.800Z,93919.13
2022-11-28T22:16:12.231Z,93924.53
2022-11-28T22:18:38.692Z,93916.03
2022-11-28T22:21:22.575Z,93924.28
2022-11-28T22:23:53.718Z,93925.06
2022-11-28T22:26:20.605Z,93920.41
2022-11-28T22:28:53.199Z,93922.22
2022-11-28T22:31:20.438Z,93919.38
2022-11-28T22:33:49.491Z,93918.63
2022-11-28T22:36:18.811Z,93929.72
2022-11-28T22:38:47.304Z,93923.50
2022-11-28T22:41:24.792Z,93926.84
2022-11-28T22:43:56.437Z,93927.38
2022-11-28T22:46:23.225Z,93921.19
2022-11-28T22:48:51.705Z,93924.78
2022-11-28T22:51:21.152Z,93933.03
2022-11-28T22:53:47.630Z,93928.66
2022-11-28T22:56:15.489Z,93925.28
2022-11-28T22:58:44.323Z,93933.03
2022-11-28T23:01:14.096Z,93928.41
2022-11-28T23:03:40.843Z,93929.44
2022-11-28T23:06:10.424Z,93932.03
2022-11-28T23:08:37.231Z,93931.25
2022-11-28T23:11:09.130Z,93928.94
2022-11-28T23:13:36.447Z,93927.88
2022-11-28T23:16:13.091Z,93926.88
2022-11-28T23:18:40.132Z,93926.34
2022-11-28T23:21:07.553Z,93932.03
2022-11-28T23:23:34.964Z,93925.31
2022-11-28T23:26:11.116Z,93927.66
2022-11-28T23:28:38.136Z,93917.34
2022-11-28T23:31:22.807Z,93927.38
2022-11-28T23:33:49.635Z,93926.59
2022-11-28T23:36:17.372Z,93924.81
2022-11-28T23:38:45.088Z,93925.81
2022-11-28T23:41:11.971Z,93917.06
2022-11-28T23:43:38.914Z,93913.69
2022-11-28T23:46:05.582Z,93919.13
2022-11-28T23:48:32.978Z,93919.91
2022-11-28T23:50:59.506Z,93913.44
2022-11-28T23:53:26.240Z,93916.28
2022-11-28T23:55:52.684Z,93916.00
2022-11-28T23:58:19.293Z,93916.00
